Terminal Aerodrome Forecast
Issued by NWS Billings, MT

Home | Current Version | Previous Version | Graphics & Text | Print | Product List | Glossary On
Versions: 1 2 3 4 5 6 7 8 9 10 11 12 13 14
000
FTUS45 KBYZ 191120
TAFMLS
TAF
KMLS 191120Z 1912/2012 02006KT P6SM -SN SCT020 OVC090
      TEMPO 1915/1919 2SM -SN BR SCT020 OVC040
     FM191900 VRB05KT 3SM -SN BR SCT020 OVC040
     FM200800 VRB05KT P6SM -SN FEW010 SCT050=

USA.gov is the U.S. government's official web portal to all federal, state and local government web resources and services.